Time;durP1;ratioP1;P1;durP2;ratioP2;P2;SDS_P1;SDS_P2;PMS_P1;PMS_P2;Temp;Humidity;BMP_temperature;BMP_pressure;BME280_temperature;BME280_humidity;BME280_pressure;Samples;Min_cycle;Max_cycle;Signal;HPM_P1;HPM_P2
2023/03/09 00:02:17;;;;;;;3.28;1.17;;;;;;;;;;5052076;28;20045;-53
2023/03/09 00:04:44;;;;;;;4.15;1.30;;;;;;;;;;5052081;28;20053;-54
2023/03/09 00:07:10;;;;;;;3.60;1.10;;;;;;;;;;5052149;28;20129;-52
2023/03/09 00:09:37;;;;;;;5.57;1.20;;;;;;;;;;5051878;28;20072;-52
2023/03/09 00:12:04;;;;;;;3.75;1.52;;;;;;;;;;5052110;28;20052;-53
2023/03/09 00:14:32;;;;;;;3.78;1.25;;;;;;;;;;5051897;28;20049;-54
2023/03/09 00:16:59;;;;;;;4.38;1.60;;;;;;;;;;5051896;28;20045;-55
2023/03/09 00:19:27;;;;;;;5.20;1.48;;;;;;;;;;5051944;28;20045;-52
2023/03/09 00:21:54;;;;;;;3.75;1.33;;;;;;;;;;5051471;28;20052;-52
2023/03/09 00:24:26;;;;;;;3.03;1.17;;;;;;;;;;5051611;28;20091;-54
2023/03/09 00:26:55;;;;;;;2.88;1.30;;;;;;;;;;5051580;28;20049;-53
2023/03/09 00:29:24;;;;;;;3.95;1.30;;;;;;;;;;5051482;28;20081;-54
2023/03/09 00:31:52;;;;;;;3.55;1.30;;;;;;;;;;5065836;28;20106;-53
2023/03/09 00:34:20;;;;;;;2.33;0.80;;;;;;;;;;5071536;28;20149;-53
2023/03/09 00:36:47;;;;;;;5.80;0.95;;;;;;;;;;5071238;28;20045;-52
2023/03/09 00:39:16;;;;;;;2.38;1.88;;;;;;;;;;5071371;28;20152;-55
2023/03/09 00:41:43;;;;;;;1.92;0.90;;;;;;;;;;5071542;28;20467;-51
2023/03/09 00:44:12;;;;;;;2.30;1.05;;;;;;;;;;5071129;28;20045;-54
2023/03/09 00:46:39;;;;;;;2.05;0.90;;;;;;;;;;5071150;28;20052;-54
2023/03/09 00:49:10;;;;;;;2.13;1.00;;;;;;;;;;5070891;28;20090;-53
2023/03/09 00:51:37;;;;;;;3.97;1.20;;;;;;;;;;5062018;28;20056;-54
2023/03/09 00:54:05;;;;;;;2.58;0.85;;;;;;;;;;5050901;28;20056;-53
2023/03/09 00:56:31;;;;;;;1.90;0.82;;;;;;;;;;5050924;28;20049;-53
2023/03/09 00:58:59;;;;;;;1.13;0.60;;;;;;;;;;5051058;28;20045;-55
2023/03/09 01:01:26;;;;;;;1.98;1.20;;;;;;;;;;5050990;28;20053;-50
2023/03/09 01:03:54;;;;;;;1.70;0.82;;;;;;;;;;5051120;28;20410;-50
2023/03/09 01:06:22;;;;;;;2.78;0.80;;;;;;;;;;5050786;28;20591;-55
2023/03/09 01:08:49;;;;;;;3.50;0.95;;;;;;;;;;5050620;28;20102;-52
2023/03/09 01:11:17;;;;;;;1.85;0.63;;;;;;;;;;5049976;28;20064;-53
2023/03/09 01:13:45;;;;;;;1.77;0.70;;;;;;;;;;5051032;28;20106;-55
2023/03/09 01:16:11;;;;;;;1.55;0.80;;;;;;;;;;5050828;28;20045;-56
2023/03/09 01:18:39;;;;;;;1.80;0.70;;;;;;;;;;5050855;28;20045;-53
2023/03/09 01:21:06;;;;;;;1.67;0.60;;;;;;;;;;5050619;28;20041;-56
2023/03/09 01:23:36;;;;;;;3.13;0.90;;;;;;;;;;5050862;28;20045;-52
2023/03/09 01:26:03;;;;;;;2.83;1.23;;;;;;;;;;5069100;28;20516;-53
2023/03/09 01:28:30;;;;;;;1.65;0.60;;;;;;;;;;5053178;28;20049;-53
2023/03/09 01:30:57;;;;;;;1.45;0.50;;;;;;;;;;5050704;28;20556;-55
2023/03/09 01:33:23;;;;;;;0.82;0.50;;;;;;;;;;5050605;28;20138;-55
2023/03/09 01:35:50;;;;;;;1.35;1.00;;;;;;;;;;5050246;28;20049;-56
2023/03/09 01:38:17;;;;;;;3.20;0.60;;;;;;;;;;5049993;28;20052;-53
2023/03/09 01:40:47;;;;;;;1.25;0.50;;;;;;;;;;5050160;28;20071;-49
2023/03/09 01:43:40;;;;;;;1.20;0.50;;;;;;;;;;5050158;28;20086;-53
2023/03/09 01:46:30;;;;;;;1.55;0.50;;;;;;;;;;5050245;28;20150;-51
2023/03/09 01:49:02;;;;;;;2.72;0.50;;;;;;;;;;5049972;28;20056;-51
2023/03/09 01:51:33;;;;;;;1.20;0.52;;;;;;;;;;5066476;28;20531;-53
2023/03/09 01:54:00;;;;;;;;;;;;;;;;;;5070484;28;20070;-54
2023/03/09 01:56:30;;;;;;;1.33;0.32;;;;;;;;;;5070304;28;19950;-53
2023/03/09 01:59:00;;;;;;;1.08;0.40;;;;;;;;;;5069905;28;20217;-50
2023/03/09 02:01:27;;;;;;;0.80;0.40;;;;;;;;;;5070078;28;20049;-53
2023/03/09 02:03:59;;;;;;;0.65;0.30;;;;;;;;;;5070014;28;20635;-51
2023/03/09 02:06:26;;;;;;;0.70;0.40;;;;;;;;;;5069927;28;20044;-51
2023/03/09 02:08:58;;;;;;;0.60;0.30;;;;;;;;;;5069604;28;20558;-51
2023/03/09 02:11:25;;;;;;;0.57;0.35;;;;;;;;;;5061334;28;20627;-50
2023/03/09 02:13:54;;;;;;;0.32;0.30;;;;;;;;;;5053566;28;20102;-56
2023/03/09 02:16:21;;;;;;;0.90;0.40;;;;;;;;;;5069977;28;20045;-51
2023/03/09 02:18:48;;;;;;;1.52;0.40;;;;;;;;;;5069678;28;20102;-54
2023/03/09 02:21:25;;;;;;;0.77;0.30;;;;;;;;;;5069635;28;20048;-54
2023/03/09 02:24:00;;;;;;;1.10;0.45;;;;;;;;;;5060367;28;20471;-54
2023/03/09 02:26:33;;;;;;;0.93;0.30;;;;;;;;;;5053429;28;20553;-53
2023/03/09 02:29:01;;;;;;;0.57;0.30;;;;;;;;;;5052225;28;20099;-53
2023/03/09 02:31:28;;;;;;;0.93;0.30;;;;;;;;;;5052801;28;20553;-50
2023/03/09 02:33:55;;;;;;;0.55;0.30;;;;;;;;;;5052203;28;20076;-52
2023/03/09 02:36:23;;;;;;;1.02;0.40;;;;;;;;;;5053550;28;20312;-52
2023/03/09 02:38:50;;;;;;;1.75;0.50;;;;;;;;;;5053611;28;20785;-53
2023/03/09 02:41:18;;;;;;;2.33;0.43;;;;;;;;;;5060985;28;20094;-54
2023/03/09 02:43:50;;;;;;;2.88;0.57;;;;;;;;;;5056823;28;20383;-51
2023/03/09 02:46:18;;;;;;;4.88;0.70;;;;;;;;;;5060647;28;20049;-52
2023/03/09 02:48:45;;;;;;;2.30;0.55;;;;;;;;;;5058260;28;20438;-51
2023/03/09 02:51:12;;;;;;;1.70;0.50;;;;;;;;;;5060986;28;20515;-50
2023/03/09 02:53:39;;;;;;;2.17;0.65;;;;;;;;;;5061546;28;20040;-50
2023/03/09 02:56:06;;;;;;;0.55;0.40;;;;;;;;;;5073182;28;20122;-50
2023/03/09 02:58:33;;;;;;;2.00;0.60;;;;;;;;;;5072946;28;20040;-52
2023/03/09 03:01:00;;;;;;;1.33;0.40;;;;;;;;;;5058558;28;20111;-50
2023/03/09 03:03:28;;;;;;;1.63;0.40;;;;;;;;;;5052999;28;20103;-50
2023/03/09 03:05:55;;;;;;;1.60;0.50;;;;;;;;;;5052837;28;20115;-50
2023/03/09 03:08:22;;;;;;;3.00;0.80;;;;;;;;;;5052963;28;20070;-52
2023/03/09 03:10:49;;;;;;;1.17;0.52;;;;;;;;;;5052920;28;20126;-52
2023/03/09 03:13:15;;;;;;;1.42;0.40;;;;;;;;;;5052923;28;20061;-50
2023/03/09 03:15:42;;;;;;;3.30;0.40;;;;;;;;;;5053105;28;20041;-49
2023/03/09 03:18:09;;;;;;;2.55;0.40;;;;;;;;;;5052920;28;20147;-50
2023/03/09 03:20:37;;;;;;;2.67;0.40;;;;;;;;;;5052744;28;20049;-50
2023/03/09 03:23:04;;;;;;;1.33;0.45;;;;;;;;;;5052750;28;20045;-51
2023/03/09 03:25:31;;;;;;;1.60;0.60;;;;;;;;;;5053639;28;20053;-50
2023/03/09 03:27:58;;;;;;;2.03;0.55;;;;;;;;;;5065749;28;20044;-51
2023/03/09 03:30:25;;;;;;;1.63;0.60;;;;;;;;;;5072557;28;20044;-51
2023/03/09 03:32:53;;;;;;;0.85;0.40;;;;;;;;;;5061707;28;20045;-51
2023/03/09 03:35:20;;;;;;;1.73;0.60;;;;;;;;;;5051792;28;20526;-52
2023/03/09 03:37:48;;;;;;;2.42;0.68;;;;;;;;;;5060659;28;20053;-49
2023/03/09 03:40:15;;;;;;;1.00;0.65;;;;;;;;;;5065897;28;20045;-50
2023/03/09 03:42:42;;;;;;;1.73;0.50;;;;;;;;;;5063514;28;20045;-51
2023/03/09 03:45:10;;;;;;;1.92;0.80;;;;;;;;;;5056709;28;20049;-50
2023/03/09 03:47:37;;;;;;;1.27;0.63;;;;;;;;;;5061822;28;20311;-50
2023/03/09 03:50:04;;;;;;;2.28;0.70;;;;;;;;;;5055275;28;20075;-49
2023/03/09 03:52:31;;;;;;;1.30;0.60;;;;;;;;;;5052058;28;20041;-52
2023/03/09 03:54:59;;;;;;;2.20;0.60;;;;;;;;;;5051898;28;20049;-50
2023/03/09 03:57:26;;;;;;;2.53;0.80;;;;;;;;;;5052568;28;20122;-49
2023/03/09 03:59:53;;;;;;;2.88;1.13;;;;;;;;;;5060353;28;20113;-48
2023/03/09 04:02:19;;;;;;;0.93;0.50;;;;;;;;;;5057297;28;20540;-50
2023/03/09 04:04:46;;;;;;;1.70;0.70;;;;;;;;;;5054670;28;20094;-50
2023/03/09 04:07:13;;;;;;;2.03;0.70;;;;;;;;;;5060447;28;20045;-49
2023/03/09 04:09:40;;;;;;;2.22;0.70;;;;;;;;;;5068332;28;20040;-54
2023/03/09 04:12:09;;;;;;;2.38;0.70;;;;;;;;;;5064552;28;20052;-51
2023/03/09 04:14:36;;;;;;;3.65;0.90;;;;;;;;;;5054550;28;20107;-53
2023/03/09 04:17:04;;;;;;;2.55;0.82;;;;;;;;;;5070245;28;20107;-51
2023/03/09 04:19:30;;;;;;;1.98;0.80;;;;;;;;;;5071287;28;20052;-53
2023/03/09 04:21:57;;;;;;;4.35;1.13;;;;;;;;;;5071308;28;20080;-51
2023/03/09 04:24:24;;;;;;;2.67;0.95;;;;;;;;;;5059358;28;20110;-51
2023/03/09 04:26:51;;;;;;;3.00;0.73;;;;;;;;;;5059653;28;20049;-51
2023/03/09 04:29:19;;;;;;;3.15;1.00;;;;;;;;;;5070381;28;20562;-50
2023/03/09 04:31:46;;;;;;;3.20;1.05;;;;;;;;;;5052989;28;20077;-51
2023/03/09 04:34:13;;;;;;;2.22;0.82;;;;;;;;;;5052532;28;20045;-51
2023/03/09 04:36:40;;;;;;;2.53;0.80;;;;;;;;;;5063226;28;20044;-50
2023/03/09 04:39:06;;;;;;;2.75;0.90;;;;;;;;;;5061790;28;20488;-49
2023/03/09 04:41:33;;;;;;;4.65;0.98;;;;;;;;;;5061448;28;20052;-50
2023/03/09 04:44:01;;;;;;;3.67;1.08;;;;;;;;;;5057109;28;20106;-49
2023/03/09 04:46:29;;;;;;;2.33;0.70;;;;;;;;;;5060095;28;20109;-50
2023/03/09 04:48:56;;;;;;;2.00;0.77;;;;;;;;;;5056828;28;20535;-50
2023/03/09 04:51:23;;;;;;;2.22;1.00;;;;;;;;;;5068487;28;20448;-50
2023/03/09 04:53:50;;;;;;;3.30;0.88;;;;;;;;;;5069639;28;20048;-55
2023/03/09 04:56:16;;;;;;;3.03;0.88;;;;;;;;;;5054231;28;20053;-51
2023/03/09 04:58:43;;;;;;;6.00;1.00;;;;;;;;;;5050345;28;20103;-52
2023/03/09 05:01:10;;;;;;;2.25;1.00;;;;;;;;;;5050395;28;20041;-53
2023/03/09 05:03:38;;;;;;;1.23;0.60;;;;;;;;;;5050180;28;20740;-55
2023/03/09 05:06:05;;;;;;;3.15;0.80;;;;;;;;;;5048550;28;20056;-51
2023/03/09 05:08:32;;;;;;;1.30;0.63;;;;;;;;;;5050176;28;20494;-57
2023/03/09 05:10:59;;;;;;;3.83;0.70;;;;;;;;;;5050229;28;20083;-54
2023/03/09 05:13:26;;;;;;;2.25;0.80;;;;;;;;;;5050305;28;20521;-51
2023/03/09 05:15:53;;;;;;;1.75;0.70;;;;;;;;;;5050027;28;20498;-51
2023/03/09 05:18:20;;;;;;;0.93;0.40;;;;;;;;;;5050054;28;20780;-51
2023/03/09 05:20:48;;;;;;;1.33;0.63;;;;;;;;;;5050256;28;20057;-52
2023/03/09 05:23:15;;;;;;;1.38;0.57;;;;;;;;;;5050825;28;20045;-53
2023/03/09 05:25:41;;;;;;;1.08;0.50;;;;;;;;;;5057836;28;20126;-50
2023/03/09 05:28:08;;;;;;;0.70;0.70;;;;;;;;;;5059831;28;20048;-53
2023/03/09 05:30:35;;;;;;;1.42;0.60;;;;;;;;;;5051621;28;20102;-56
2023/03/09 05:33:02;;;;;;;2.20;0.50;;;;;;;;;;5057057;28;20045;-54
2023/03/09 05:35:28;;;;;;;0.60;0.40;;;;;;;;;;5056987;28;20041;-54
2023/03/09 05:37:57;;;;;;;3.80;0.57;;;;;;;;;;5056599;28;20041;-54
2023/03/09 05:40:23;;;;;;;1.33;0.40;;;;;;;;;;5059843;28;20062;-55
2023/03/09 05:42:50;;;;;;;1.27;0.68;;;;;;;;;;5055157;28;20047;-55
2023/03/09 05:45:17;;;;;;;0.47;0.40;;;;;;;;;;5064314;28;20059;-53
2023/03/09 05:47:44;;;;;;;0.95;0.52;;;;;;;;;;5055631;28;20048;-52
2023/03/09 05:50:11;;;;;;;1.83;0.68;;;;;;;;;;5054540;28;20051;-53
2023/03/09 05:52:39;;;;;;;1.80;0.50;;;;;;;;;;5053185;28;20530;-56
2023/03/09 05:55:10;;;;;;;1.83;0.52;;;;;;;;;;5058202;28;20416;-55
2023/03/09 05:57:39;;;;;;;1.55;0.50;;;;;;;;;;5054092;28;20102;-56
2023/03/09 06:00:09;;;;;;;3.60;0.60;;;;;;;;;;5056538;28;20048;-54
2023/03/09 06:02:36;;;;;;;1.65;0.50;;;;;;;;;;5056070;28;20040;-54
2023/03/09 06:05:03;;;;;;;1.83;0.47;;;;;;;;;;5055515;28;20048;-55
2023/03/09 06:07:30;;;;;;;0.85;0.32;;;;;;;;;;5057320;28;20041;-50
2023/03/09 06:09:57;;;;;;;2.15;0.40;;;;;;;;;;5055513;28;20048;-55
2023/03/09 06:12:26;;;;;;;1.67;0.60;;;;;;;;;;5053573;28;20041;-53
2023/03/09 06:14:53;;;;;;;1.05;0.43;;;;;;;;;;5057781;28;20493;-53
2023/03/09 06:17:20;;;;;;;1.52;0.85;;;;;;;;;;5055115;28;20473;-54
2023/03/09 06:19:47;;;;;;;1.65;0.50;;;;;;;;;;5055035;28;20485;-54
2023/03/09 06:22:14;;;;;;;2.35;0.70;;;;;;;;;;5053840;28;20233;-54
2023/03/09 06:24:42;;;;;;;2.88;0.50;;;;;;;;;;5060343;28;20098;-55
2023/03/09 06:27:08;;;;;;;0.40;0.30;;;;;;;;;;5052859;28;20057;-51
2023/03/09 06:29:37;;;;;;;0.45;0.40;;;;;;;;;;5053144;28;20044;-57
2023/03/09 06:32:04;;;;;;;1.75;0.40;;;;;;;;;;5057164;28;20045;-56
2023/03/09 06:34:31;;;;;;;0.80;0.40;;;;;;;;;;5059743;28;20102;-52
2023/03/09 06:36:57;;;;;;;2.05;0.60;;;;;;;;;;5058690;28;20122;-51
2023/03/09 06:39:24;;;;;;;1.90;0.70;;;;;;;;;;5057101;28;20041;-52
2023/03/09 06:41:51;;;;;;;0.70;0.50;;;;;;;;;;5056206;28;20056;-52
2023/03/09 06:44:18;;;;;;;2.63;0.70;;;;;;;;;;5055716;28;20473;-55
2023/03/09 06:46:46;;;;;;;2.25;0.60;;;;;;;;;;5055138;28;20048;-51
2023/03/09 06:49:13;;;;;;;1.70;0.60;;;;;;;;;;5058335;28;20101;-55
2023/03/09 06:51:39;;;;;;;1.60;0.70;;;;;;;;;;5057968;28;20559;-54
2023/03/09 06:54:06;;;;;;;2.20;0.60;;;;;;;;;;5059239;28;20049;-55
2023/03/09 06:56:33;;;;;;;3.22;0.77;;;;;;;;;;5049439;28;20106;-52
2023/03/09 06:59:00;;;;;;;1.73;0.68;;;;;;;;;;5049203;28;20132;-56
2023/03/09 07:01:27;;;;;;;1.25;0.50;;;;;;;;;;5049408;28;20433;-56
2023/03/09 07:03:55;;;;;;;1.00;0.50;;;;;;;;;;5050077;28;20128;-55
2023/03/09 07:06:23;;;;;;;1.13;0.60;;;;;;;;;;5060847;28;20052;-54
2023/03/09 07:08:49;;;;;;;1.92;0.73;;;;;;;;;;5049325;28;20140;-51
2023/03/09 07:11:16;;;;;;;2.72;0.60;;;;;;;;;;5052655;28;20041;-55
2023/03/09 07:13:43;;;;;;;1.33;0.40;;;;;;;;;;5069811;28;20048;-53
2023/03/09 07:16:10;;;;;;;1.48;0.57;;;;;;;;;;5070103;28;20060;-52
2023/03/09 07:18:36;;;;;;;2.70;0.60;;;;;;;;;;5054751;28;20574;-50
2023/03/09 07:21:05;;;;;;;2.85;0.80;;;;;;;;;;5052026;28;20563;-55
2023/03/09 07:23:33;;;;;;;2.00;0.60;;;;;;;;;;5052159;28;20052;-55
2023/03/09 07:26:01;;;;;;;3.10;0.60;;;;;;;;;;5052636;28;20053;-54
2023/03/09 07:28:28;;;;;;;0.80;0.50;;;;;;;;;;5052290;28;20045;-55
2023/03/09 07:30:54;;;;;;;1.77;0.52;;;;;;;;;;5052660;28;20053;-55
2023/03/09 07:33:21;;;;;;;3.58;0.90;;;;;;;;;;5052538;28;20056;-54
2023/03/09 07:35:48;;;;;;;2.50;0.60;;;;;;;;;;5052199;28;20056;-56
2023/03/09 07:38:16;;;;;;;1.38;0.52;;;;;;;;;;5052182;28;20103;-50
2023/03/09 07:40:43;;;;;;;2.50;0.60;;;;;;;;;;5052414;28;20049;-51
2023/03/09 07:43:12;;;;;;;1.90;0.68;;;;;;;;;;5052069;28;20049;-53
2023/03/09 07:45:40;;;;;;;0.95;0.50;;;;;;;;;;5052277;28;20140;-56
2023/03/09 07:48:07;;;;;;;1.50;0.73;;;;;;;;;;5051574;28;20442;-55
2023/03/09 07:50:34;;;;;;;1.98;0.52;;;;;;;;;;5052081;28;20045;-54
2023/03/09 07:53:01;;;;;;;1.70;0.40;;;;;;;;;;5052257;28;20103;-53
2023/03/09 07:55:29;;;;;;;1.13;0.70;;;;;;;;;;5052205;28;20128;-54
2023/03/09 07:57:56;;;;;;;3.75;0.80;;;;;;;;;;5051568;28;20476;-55
2023/03/09 08:00:24;;;;;;;1.02;0.40;;;;;;;;;;5052213;28;20059;-53
2023/03/09 08:02:51;;;;;;;2.30;0.90;;;;;;;;;;5051548;28;20124;-56
2023/03/09 08:05:18;;;;;;;3.45;0.70;;;;;;;;;;5051979;28;20075;-52
2023/03/09 08:07:46;;;;;;;1.52;0.45;;;;;;;;;;5051829;28;20060;-55
2023/03/09 08:10:14;;;;;;;3.03;0.77;;;;;;;;;;5051788;28;20053;-55
2023/03/09 08:12:42;;;;;;;3.10;0.65;;;;;;;;;;5051613;28;20095;-52
2023/03/09 08:15:10;;;;;;;2.22;0.68;;;;;;;;;;5051370;28;20049;-55
2023/03/09 08:17:37;;;;;;;3.20;1.13;;;;;;;;;;5051653;28;20055;-50
2023/03/09 08:20:08;;;;;;;2.15;0.60;;;;;;;;;;5051333;28;20453;-55
2023/03/09 08:22:36;;;;;;;2.47;0.80;;;;;;;;;;5051634;28;20052;-55
2023/03/09 08:25:03;;;;;;;2.45;1.00;;;;;;;;;;5051417;28;20048;-51
2023/03/09 08:27:30;;;;;;;3.50;0.70;;;;;;;;;;5051122;28;20057;-54
2023/03/09 08:29:58;;;;;;;3.25;1.00;;;;;;;;;;5056214;28;20091;-59
2023/03/09 08:32:25;;;;;;;2.47;0.73;;;;;;;;;;5071509;28;20047;-54
2023/03/09 08:34:55;;;;;;;3.45;0.82;;;;;;;;;;5067245;28;20103;-60
2023/03/09 08:37:23;;;;;;;1.95;0.60;;;;;;;;;;5056632;28;20052;-64
2023/03/09 08:39:51;;;;;;;2.05;0.82;;;;;;;;;;5051705;28;20490;-53
2023/03/09 08:42:18;;;;;;;2.58;0.75;;;;;;;;;;5051345;28;20075;-63
2023/03/09 08:44:45;;;;;;;2.75;0.70;;;;;;;;;;5056782;28;20529;-62
2023/03/09 08:47:13;;;;;;;2.53;0.60;;;;;;;;;;5070988;28;20037;-58
2023/03/09 08:49:41;;;;;;;2.03;0.57;;;;;;;;;;5070855;28;20052;-58
2023/03/09 08:52:08;;;;;;;3.40;1.08;;;;;;;;;;5060165;28;20036;-51
2023/03/09 08:54:35;;;;;;;3.63;0.80;;;;;;;;;;5051169;28;20125;-53
2023/03/09 08:57:02;;;;;;;3.85;1.13;;;;;;;;;;5050843;28;20045;-53
2023/03/09 08:59:28;;;;;;;2.28;0.50;;;;;;;;;;5050828;28;20048;-50
2023/03/09 09:01:55;;;;;;;3.90;0.70;;;;;;;;;;5053055;28;20091;-54
2023/03/09 09:04:23;;;;;;;3.08;0.77;;;;;;;;;;5050538;28;20087;-54
2023/03/09 09:06:51;;;;;;;3.47;0.90;;;;;;;;;;5050338;28;20098;-59
2023/03/09 09:09:17;;;;;;;3.45;1.08;;;;;;;;;;5050400;28;20053;-59
2023/03/09 09:11:44;;;;;;;4.90;1.00;;;;;;;;;;5050864;28;20575;-59
2023/03/09 09:14:11;;;;;;;6.68;0.93;;;;;;;;;;5054470;28;20041;-52
2023/03/09 09:16:38;;;;;;;3.10;1.15;;;;;;;;;;5050664;28;20063;-51
2023/03/09 09:19:05;;;;;;;3.78;0.73;;;;;;;;;;5050393;28;20098;-51
2023/03/09 09:21:33;;;;;;;3.30;0.90;;;;;;;;;;5050769;28;20049;-55
2023/03/09 09:24:00;;;;;;;2.33;0.63;;;;;;;;;;5050096;28;20410;-53
2023/03/09 09:26:26;;;;;;;4.95;1.00;;;;;;;;;;5050445;28;20099;-52
2023/03/09 09:28:53;;;;;;;1.98;0.60;;;;;;;;;;5050160;28;20053;-50
2023/03/09 09:31:21;;;;;;;3.97;0.85;;;;;;;;;;5049736;28;20113;-53
2023/03/09 09:33:48;;;;;;;4.18;0.90;;;;;;;;;;5049326;28;20127;-49
2023/03/09 09:36:17;;;;;;;3.25;0.90;;;;;;;;;;5050091;28;20048;-51
2023/03/09 09:38:45;;;;;;;5.25;1.48;;;;;;;;;;5050163;28;20048;-54
2023/03/09 09:41:18;;;;;;;4.15;0.80;;;;;;;;;;5050021;28;20049;-54
2023/03/09 09:43:45;;;;;;;3.85;0.90;;;;;;;;;;5050067;28;20477;-56
2023/03/09 09:46:16;;;;;;;4.88;0.98;;;;;;;;;;5050011;28;20126;-56
2023/03/09 09:48:46;;;;;;;4.80;0.90;;;;;;;;;;5049844;28;20490;-52
2023/03/09 09:51:25;;;;;;;4.90;0.90;;;;;;;;;;5050418;28;20044;-54
2023/03/09 09:54:04;;;;;;;4.50;0.90;;;;;;;;;;5050237;28;20057;-53
2023/03/09 09:56:41;;;;;;;4.05;1.10;;;;;;;;;;5050753;28;20512;-53
2023/03/09 09:59:16;;;;;;;5.03;1.00;;;;;;;;;;5049969;28;20132;-54
2023/03/09 10:01:49;;;;;;;5.35;1.00;;;;;;;;;;5050126;28;20359;-55
2023/03/09 10:04:23;;;;;;;3.92;1.02;;;;;;;;;;5050229;28;20697;-53
2023/03/09 10:06:52;;;;;;;5.68;1.48;;;;;;;;;;5049866;28;20151;-51
2023/03/09 10:09:23;;;;;;;3.08;0.90;;;;;;;;;;5055362;28;20075;-52
2023/03/09 10:11:53;;;;;;;2.88;0.80;;;;;;;;;;5050174;28;20673;-51
2023/03/09 10:14:27;;;;;;;4.57;0.90;;;;;;;;;;5050030;28;20144;-52
2023/03/09 10:17:00;;;;;;;4.15;0.90;;;;;;;;;;5049636;28;20128;-52
2023/03/09 10:19:31;;;;;;;3.35;0.60;;;;;;;;;;5049917;28;20131;-53
2023/03/09 10:22:00;;;;;;;3.55;0.80;;;;;;;;;;5050102;28;20391;-50
2023/03/09 10:24:31;;;;;;;16.98;1.23;;;;;;;;;;5050850;28;20131;-51
2023/03/09 10:27:01;;;;;;;;;;;;;;;;;;5050191;28;20094;-51
2023/03/09 10:29:41;;;;;;;1.90;0.55;;;;;;;;;;5049415;28;19925;-53
2023/03/09 10:32:16;;;;;;;5.60;1.23;;;;;;;;;;5049614;28;20045;-50
2023/03/09 10:34:54;;;;;;;4.05;0.90;;;;;;;;;;5049757;28;20608;-51
2023/03/09 10:37:25;;;;;;;2.53;0.82;;;;;;;;;;5050021;28;20053;-51
2023/03/09 10:39:53;;;;;;;2.17;0.60;;;;;;;;;;5049611;28;20049;-51
2023/03/09 10:42:22;;;;;;;2.67;0.60;;;;;;;;;;5049788;28;20051;-50
2023/03/09 10:45:03;;;;;;;3.85;0.65;;;;;;;;;;5052642;28;20049;-50
2023/03/09 10:47:52;;;;;;;2.28;0.70;;;;;;;;;;5054140;28;20102;-52
2023/03/09 10:50:21;;;;;;;3.35;0.90;;;;;;;;;;5053518;28;20430;-52
2023/03/09 10:52:48;;;;;;;2.75;1.08;;;;;;;;;;5053176;28;20052;-52
2023/03/09 10:55:37;;;;;;;3.58;0.77;;;;;;;;;;5053216;28;20060;-52
2023/03/09 10:58:14;;;;;;;9.43;1.33;;;;;;;;;;5053240;28;20049;-54
2023/03/09 11:00:51;;;;;;;3.25;0.88;;;;;;;;;;5053202;28;20482;-51
2023/03/09 11:03:21;;;;;;;3.67;0.88;;;;;;;;;;5053229;28;20114;-50
2023/03/09 11:05:48;;;;;;;2.28;0.70;;;;;;;;;;5053058;28;20045;-50
2023/03/09 11:08:24;;;;;;;3.13;0.60;;;;;;;;;;5053093;28;20087;-52
2023/03/09 11:11:03;;;;;;;5.57;0.80;;;;;;;;;;5053026;28;20049;-51
2023/03/09 11:13:29;;;;;;;2.90;0.68;;;;;;;;;;5053318;28;20486;-52
2023/03/09 11:16:14;;;;;;;2.47;0.70;;;;;;;;;;5052877;28;20476;-52
2023/03/09 11:18:41;;;;;;;4.97;0.82;;;;;;;;;;5053165;28;20136;-53
2023/03/09 11:21:08;;;;;;;2.22;0.68;;;;;;;;;;5052847;28;20045;-53
2023/03/09 11:23:40;;;;;;;3.33;1.13;;;;;;;;;;5052764;28;20053;-49
2023/03/09 11:26:18;;;;;;;3.30;0.77;;;;;;;;;;5052789;28;20076;-51
2023/03/09 11:28:53;;;;;;;1.73;0.70;;;;;;;;;;5052297;28;20457;-47
2023/03/09 11:31:24;;;;;;;6.43;0.70;;;;;;;;;;5052592;28;20683;-50
2023/03/09 11:33:55;;;;;;;4.57;0.80;;;;;;;;;;5052837;28;20056;-50
2023/03/09 11:36:26;;;;;;;3.08;1.00;;;;;;;;;;5052660;28;20084;-49
2023/03/09 11:38:55;;;;;;;2.08;0.80;;;;;;;;;;5052496;28;20061;-53
2023/03/09 11:41:28;;;;;;;4.35;0.80;;;;;;;;;;5052519;28;20114;-51
2023/03/09 11:44:00;;;;;;;4.93;1.13;;;;;;;;;;5052309;28;20064;-53
2023/03/09 11:46:27;;;;;;;3.45;0.70;;;;;;;;;;5052397;28;20052;-52
2023/03/09 11:49:06;;;;;;;2.97;0.65;;;;;;;;;;5052269;28;20049;-52
2023/03/09 11:51:38;;;;;;;6.88;1.48;;;;;;;;;;5052626;28;20060;-54
2023/03/09 11:54:17;;;;;;;2.20;0.70;;;;;;;;;;5052665;28;20056;-53
2023/03/09 11:56:47;;;;;;;5.57;1.00;;;;;;;;;;5051557;28;20468;-53
2023/03/09 11:59:18;;;;;;;5.15;1.20;;;;;;;;;;5052011;28;20506;-52
2023/03/09 12:01:49;;;;;;;3.42;0.80;;;;;;;;;;5052160;28;20094;-50
2023/03/09 12:04:17;;;;;;;5.35;1.17;;;;;;;;;;5052314;28;20056;-54
2023/03/09 12:06:53;;;;;;;4.25;1.13;;;;;;;;;;5051945;28;20110;-49
2023/03/09 12:09:28;;;;;;;3.05;0.57;;;;;;;;;;5051731;28;20056;-51
2023/03/09 12:11:58;;;;;;;5.78;1.15;;;;;;;;;;5073163;22;20048;-76
2023/03/09 12:14:28;;;;;;;;;;;;;;;;;;5034220;28;20579;-77
2023/03/09 12:16:59;;;;;;;1.85;0.80;;;;;;;;;;5034242;28;19960;-77
2023/03/09 12:19:29;;;;;;;1.77;0.60;;;;;;;;;;5034596;28;20045;-78
2023/03/09 12:22:02;;;;;;;3.45;0.90;;;;;;;;;;5033916;28;20107;-85
2023/03/09 12:24:34;;;;;;;4.22;0.95;;;;;;;;;;5035106;28;20084;-81
2023/03/09 12:27:11;;;;;;;2.22;0.80;;;;;;;;;;5030201;28;20069;-80
2023/03/09 12:29:41;;;;;;;5.00;1.10;;;;;;;;;;5033004;28;20041;-77
2023/03/09 12:32:35;;;;;;;3.97;0.80;;;;;;;;;;5029168;28;20081;-76
2023/03/09 12:35:05;;;;;;;4.05;0.82;;;;;;;;;;5015722;28;20299;-76
2023/03/09 12:37:54;;;;;;;2.50;0.70;;;;;;;;;;5016061;28;20496;-81
2023/03/09 12:40:30;;;;;;;2.97;0.88;;;;;;;;;;5023240;28;20576;-77
2023/03/09 12:43:19;;;;;;;2.28;0.60;;;;;;;;;;5034391;28;20049;-78
2023/03/09 12:45:47;;;;;;;5.97;2.15;;;;;;;;;;5022338;28;20574;-78
2023/03/09 12:48:24;;;;;;;2.92;0.80;;;;;;;;;;5018258;28;20050;-83
2023/03/09 12:50:59;;;;;;;4.18;0.73;;;;;;;;;;5013866;28;20164;-78
2023/03/09 12:53:30;;;;;;;4.30;1.35;;;;;;;;;;5014341;28;20126;-78
2023/03/09 12:55:58;;;;;;;6.90;1.02;;;;;;;;;;5020304;28;20050;-77
2023/03/09 12:58:52;;;;;;;4.80;0.70;;;;;;;;;;5032091;28;20085;-75
2023/03/09 13:01:31;;;;;;;2.45;0.85;;;;;;;;;;5020211;28;20061;-77
2023/03/09 13:04:13;;;;;;;2.58;0.80;;;;;;;;;;5015872;28;20050;-77
2023/03/09 13:06:41;;;;;;;4.80;0.90;;;;;;;;;;5029167;28;20502;-77
2023/03/09 13:09:19;;;;;;;4.25;0.70;;;;;;;;;;5021757;28;20046;-76
2023/03/09 13:11:48;;;;;;;3.03;0.80;;;;;;;;;;5022573;28;20052;-77
2023/03/09 13:14:51;;;;;;;3.88;1.00;;;;;;;;;;5036492;28;20420;-77
2023/03/09 13:17:39;;;;;;;3.22;0.90;;;;;;;;;;5021945;28;20109;-77
2023/03/09 13:20:18;;;;;;;3.33;0.60;;;;;;;;;;5030722;28;20129;-76
2023/03/09 13:22:45;;;;;;;1.90;0.63;;;;;;;;;;5025539;28;20512;-77
2023/03/09 13:25:22;;;;;;;2.88;0.70;;;;;;;;;;5030887;28;20056;-76
2023/03/09 13:27:53;;;;;;;4.80;1.00;;;;;;;;;;5030955;28;20420;-77
2023/03/09 13:30:24;;;;;;;4.03;1.70;;;;;;;;;;5030983;28;20049;-77
2023/03/09 13:33:03;;;;;;;3.10;0.90;;;;;;;;;;5029038;28;20053;-77
2023/03/09 13:35:35;;;;;;;2.78;0.75;;;;;;;;;;5031023;28;20131;-77
2023/03/09 13:38:03;;;;;;;6.10;1.38;;;;;;;;;;5029909;28;20054;-76
2023/03/09 13:40:31;;;;;;;4.75;1.02;;;;;;;;;;5015143;28;20050;-77
2023/03/09 13:43:02;;;;;;;5.43;0.98;;;;;;;;;;5017967;28;20050;-78
2023/03/09 13:45:32;;;;;;;6.03;0.85;;;;;;;;;;5023368;28;20125;-77
2023/03/09 13:48:00;;;;;;;3.17;0.90;;;;;;;;;;5022619;28;20050;-76
2023/03/09 13:50:30;;;;;;;2.75;1.02;;;;;;;;;;5018854;28;20544;-78
2023/03/09 13:53:01;;;;;;;3.15;0.80;;;;;;;;;;5021282;28;20076;-78
2023/03/09 13:55:28;;;;;;;2.53;1.13;;;;;;;;;;5021961;28;20049;-77
2023/03/09 13:58:06;;;;;;;4.22;0.85;;;;;;;;;;5018388;28;20112;-75
2023/03/09 14:00:34;;;;;;;3.17;0.75;;;;;;;;;;5016481;28;20041;-77
2023/03/09 14:03:01;;;;;;;3.65;0.90;;;;;;;;;;5017547;28;20118;-77
2023/03/09 14:05:28;;;;;;;1.45;0.50;;;;;;;;;;5028282;28;20093;-77
2023/03/09 14:07:56;;;;;;;2.38;0.70;;;;;;;;;;5033060;28;20049;-77
2023/03/09 14:10:26;;;;;;;2.72;0.60;;;;;;;;;;5023842;28;20076;-77
2023/03/09 14:12:55;;;;;;;5.13;1.42;;;;;;;;;;5017311;28;21490;-77
2023/03/09 14:15:23;;;;;;;1.20;0.50;;;;;;;;;;5019557;28;20100;-77
2023/03/09 14:17:52;;;;;;;5.07;0.70;;;;;;;;;;5013208;28;20073;-78
2023/03/09 14:20:21;;;;;;;5.75;1.38;;;;;;;;;;5018457;28;20050;-78
2023/03/09 14:22:48;;;;;;;13.90;2.35;;;;;;;;;;5021905;28;20133;-78
2023/03/09 14:25:22;;;;;;;3.45;0.60;;;;;;;;;;5026965;28;20042;-78
2023/03/09 14:27:49;;;;;;;4.25;1.70;;;;;;;;;;5019530;28;20143;-78
2023/03/09 14:30:35;;;;;;;2.15;0.85;;;;;;;;;;5021178;28;20042;-77
2023/03/09 14:33:04;;;;;;;2.78;0.65;;;;;;;;;;5016767;28;20053;-76
2023/03/09 14:35:35;;;;;;;2.37;0.70;;;;;;;;;;5018737;28;20049;-78
2023/03/09 14:38:02;;;;;;;2.67;0.60;;;;;;;;;;5029011;28;20045;-78
2023/03/09 14:40:31;;;;;;;6.22;2.47;;;;;;;;;;5007080;28;20471;-78
2023/03/09 14:43:19;;;;;;;4.00;0.77;;;;;;;;;;4994300;28;20053;-78
2023/03/09 14:45:46;;;;;;;3.58;1.00;;;;;;;;;;5013018;28;20488;-78
2023/03/09 14:48:14;;;;;;;3.90;0.82;;;;;;;;;;5018136;28;20069;-77
2023/03/09 14:50:41;;;;;;;3.47;0.70;;;;;;;;;;5015549;28;20076;-77
2023/03/09 14:53:14;;;;;;;3.72;0.77;;;;;;;;;;5020234;28;20053;-77
2023/03/09 14:55:41;;;;;;;3.63;1.17;;;;;;;;;;5022484;28;20088;-78
2023/03/09 14:58:10;;;;;;;3.30;0.90;;;;;;;;;;5015821;28;20050;-79